Time;durP1;ratioP1;P1;durP2;ratioP2;P2;SDS_P1;SDS_P2;PMS_P1;PMS_P2;Temp;Humidity;BMP_temperature;BMP_pressure;BME280_temperature;BME280_humidity;BME280_pressure;Samples;Min_cycle;Max_cycle;Signal;HPM_P1;HPM_P2
2021/06/03 00:04:47;;;;;;;4.88;3.17;;;;;;;21.87;44.53;100367.91;10175930;29;20053;-63
2021/06/03 00:09:48;;;;;;;4.05;3.53;;;;;;;21.69;44.00;100360.25;10177813;29;20067;-62
2021/06/03 00:14:50;;;;;;;5.22;4.57;;;;;;;21.64;44.29;100373.53;10171516;29;20067;-62
2021/06/03 00:19:52;;;;;;;5.57;3.95;;;;;;;21.50;44.26;100373.41;10163863;29;20497;-58
2021/06/03 00:24:53;;;;;;;4.40;4.00;;;;;;;21.30;44.27;100367.75;10160152;29;20134;-61
2021/06/03 00:29:54;;;;;;;6.10;3.65;;;;;;;21.23;44.31;100366.84;10179806;29;20431;-57
2021/06/03 00:34:56;;;;;;;5.57;3.92;;;;;;;21.08;45.12;100369.56;10244695;23;20464;-60
2021/06/03 00:39:58;;;;;;;4.05;3.65;;;;;;;20.99;44.84;100366.13;10264104;28;20067;-60
2021/06/03 00:44:59;;;;;;;4.25;3.65;;;;;;;20.82;45.35;100368.22;10252774;28;20129;-60
2021/06/03 00:50:01;;;;;;;5.60;4.20;;;;;;;20.68;45.80;100362.81;10257015;28;20070;-60
2021/06/03 00:55:04;;;;;;;4.90;4.03;;;;;;;20.62;46.54;100375.19;10256853;28;20463;-60
2021/06/03 01:00:11;;;;;;;5.20;3.97;;;;;;;20.66;46.39;100376.53;10257219;28;20717;-60
2021/06/03 01:05:35;;;;;;;4.75;4.00;;;;;;;20.73;46.61;100382.00;10253101;28;20704;-60
2021/06/03 01:10:42;;;;;;;6.75;4.45;;;;;;;20.64;46.71;100395.59;10237125;28;20039;-61
2021/06/03 01:15:47;;;;;;;4.65;4.25;;;;;;;20.48;47.41;100395.78;10254031;28;20591;-60
2021/06/03 01:20:50;;;;;;;4.95;3.85;;;;;;;20.53;47.54;100401.47;10252634;28;20058;-60
2021/06/03 01:25:52;;;;;;;4.30;3.90;;;;;;;20.49;47.12;100408.25;10247677;28;20109;-61
2021/06/03 01:30:56;;;;;;;4.38;3.78;;;;;;;20.42;48.07;100405.47;10256858;28;20083;-61
2021/06/03 01:36:03;;;;;;;5.03;3.80;;;;;;;20.40;48.33;100409.38;10252429;28;20062;-61
2021/06/03 01:41:06;;;;;;;4.57;4.13;;;;;;;20.24;47.82;100413.91;10257041;28;20074;-62
2021/06/03 01:46:08;;;;;;;4.68;3.78;;;;;;;20.23;48.17;100419.50;10261794;28;20126;-62
2021/06/03 01:51:12;;;;;;;4.10;3.70;;;;;;;20.29;48.28;100414.19;10266415;28;20050;-60
2021/06/03 01:56:16;;;;;;;3.47;3.17;;;;;;;20.23;47.96;100433.03;10260942;28;20062;-60
2021/06/03 02:01:19;;;;;;;5.20;3.70;;;;;;;20.25;48.81;100430.97;10257259;28;20070;-60
2021/06/03 02:06:21;;;;;;;4.50;4.10;;;;;;;20.17;48.99;100420.25;10253693;28;20082;-60
2021/06/03 02:11:22;;;;;;;4.80;4.05;;;;;;;20.11;49.30;100417.22;10260642;28;20142;-61
2021/06/03 02:16:48;;;;;;;5.28;4.13;;;;;;;20.13;49.65;100419.75;10264577;28;20062;-60
2021/06/03 02:21:51;;;;;;;4.72;4.32;;;;;;;20.03;49.86;100420.00;10262281;28;20496;-60
2021/06/03 02:26:53;;;;;;;4.45;3.97;;;;;;;20.12;50.11;100424.31;10252747;28;20077;-61
2021/06/03 02:31:55;;;;;;;6.53;4.10;;;;;;;20.11;49.99;100428.03;10245719;28;20074;-61
2021/06/03 02:36:57;;;;;;;6.25;3.97;;;;;;;19.99;49.99;100426.78;10250756;28;20047;-60
2021/06/03 02:41:59;;;;;;;5.18;4.13;;;;;;;19.87;50.04;100429.06;10249592;28;20046;-61
2021/06/03 02:47:01;;;;;;;6.38;4.45;;;;;;;19.82;50.13;100425.25;10258369;28;20130;-60
2021/06/03 02:52:06;;;;;;;4.78;4.30;;;;;;;19.78;50.60;100433.69;10258166;28;20150;-61
2021/06/03 02:57:08;;;;;;;4.57;3.78;;;;;;;19.72;50.97;100434.38;10255693;28;20062;-60
2021/06/03 03:02:09;;;;;;;5.55;4.20;;;;;;;19.78;51.13;100439.09;10251475;28;20512;-60
2021/06/03 03:07:11;;;;;;;6.40;4.25;;;;;;;19.81;51.10;100434.38;10250378;28;20146;-60
2021/06/03 03:12:13;;;;;;;3.85;3.45;;;;;;;19.66;51.02;100428.88;10257801;28;20133;-60
2021/06/03 03:17:15;;;;;;;4.72;4.22;;;;;;;19.53;51.25;100434.84;10260191;28;20055;-60
2021/06/03 03:22:16;;;;;;;5.10;4.63;;;;;;;19.40;51.03;100435.44;10250002;28;20071;-64
2021/06/03 03:27:18;;;;;;;4.88;4.28;;;;;;;19.29;51.03;100439.38;10265819;28;20062;-61
2021/06/03 03:32:19;;;;;;;5.07;4.30;;;;;;;19.29;51.15;100441.22;10252973;28;20133;-61
2021/06/03 03:37:21;;;;;;;5.78;4.63;;;;;;;19.25;50.90;100448.81;10258663;28;20074;-62
2021/06/03 03:42:23;;;;;;;5.82;4.40;;;;;;;19.33;51.05;100456.88;10255149;28;20066;-62
2021/06/03 03:47:25;;;;;;;5.03;4.45;;;;;;;19.20;51.20;100451.19;10259843;28;20079;-61
2021/06/03 03:52:26;;;;;;;4.75;4.25;;;;;;;19.08;51.42;100453.47;10260183;28;20449;-63
2021/06/03 03:57:28;;;;;;;4.20;3.90;;;;;;;19.03;51.79;100483.63;10253672;28;20117;-60
2021/06/03 04:02:29;;;;;;;4.97;3.70;;;;;;;19.17;51.13;100479.38;10251509;28;20134;-61
2021/06/03 04:07:31;;;;;;;4.97;4.10;;;;;;;19.07;51.36;100495.75;10260863;28;20530;-61
2021/06/03 04:12:33;;;;;;;4.60;3.95;;;;;;;19.02;51.38;100502.69;10257398;28;20149;-61
2021/06/03 04:17:34;;;;;;;5.15;4.07;;;;;;;19.07;51.47;100498.47;10260901;28;20082;-59
2021/06/03 04:22:36;;;;;;;5.75;4.03;;;;;;;19.03;51.59;100494.41;10254085;28;20058;-61
2021/06/03 04:27:39;;;;;;;5.85;4.97;;;;;;;19.01;51.92;100496.47;10259254;28;20129;-61
2021/06/03 04:32:40;;;;;;;5.90;4.70;;;;;;;19.05;52.00;100510.44;10262594;28;20069;-62
2021/06/03 04:37:44;;;;;;;9.15;4.90;;;;;;;19.04;52.07;100506.06;10262449;28;20104;-62
2021/06/03 04:42:47;;;;;;;6.13;4.35;;;;;;;19.05;52.29;100503.19;10264131;28;20118;-61
2021/06/03 04:47:49;;;;;;;5.53;4.47;;;;;;;19.14;52.26;100512.13;10264247;28;20067;-62
2021/06/03 04:52:52;;;;;;;4.97;4.07;;;;;;;19.22;52.14;100519.34;10261047;28;20292;-61
2021/06/03 04:57:55;;;;;;;5.13;4.63;;;;;;;19.31;51.75;100507.50;10259552;28;20137;-61
2021/06/03 05:02:58;;;;;;;;;;;;;;;19.40;51.45;100511.84;10253708;28;20054;-63
2021/06/03 05:08:00;;;;;;;5.22;4.53;;;;;;;19.57;51.25;100517.16;10265445;28;19941;-61
2021/06/03 05:13:02;;;;;;;5.38;4.88;;;;;;;19.71;51.10;100521.84;10260223;28;20042;-61
2021/06/03 05:18:04;;;;;;;6.40;4.50;;;;;;;19.84;51.30;100529.38;10266339;28;20051;-62
2021/06/03 05:23:05;;;;;;;4.93;4.43;;;;;;;19.93;51.11;100530.16;10259681;28;20050;-61
2021/06/03 05:28:07;;;;;;;5.32;4.50;;;;;;;20.06;50.79;100526.91;10268244;28;20046;-61
2021/06/03 05:33:09;;;;;;;7.80;4.63;;;;;;;20.16;50.76;100538.28;10274483;28;20054;-62
2021/06/03 05:38:10;;;;;;;4.57;4.18;;;;;;;20.27;50.95;100547.88;10280630;28;20638;-61
2021/06/03 05:43:11;;;;;;;5.20;4.70;;;;;;;20.23;50.68;100549.25;10267581;28;20171;-61
2021/06/03 05:48:13;;;;;;;4.75;4.32;;;;;;;20.08;51.03;100552.69;10266405;28;20732;-61
2021/06/03 05:53:14;;;;;;;6.53;4.70;;;;;;;20.04;51.88;100556.81;10271042;28;20097;-61
2021/06/03 05:58:16;;;;;;;5.85;4.40;;;;;;;20.06;52.22;100565.56;10262612;28;20113;-61
2021/06/03 06:03:20;;;;;;;4.90;4.40;;;;;;;20.09;52.10;100572.47;10264059;28;20130;-61
2021/06/03 06:08:22;;;;;;;9.10;4.38;;;;;;;20.12;51.61;100585.63;10248797;28;20055;-61
2021/06/03 06:13:23;;;;;;;4.88;4.45;;;;;;;20.22;52.47;100590.78;10254476;28;20051;-61
2021/06/03 06:18:25;;;;;;;5.30;4.80;;;;;;;20.23;51.42;100597.88;10255254;28;20047;-61
2021/06/03 06:23:26;;;;;;;7.32;5.00;;;;;;;20.34;52.60;100588.53;10253383;28;20133;-61
2021/06/03 06:28:28;;;;;;;5.03;4.53;;;;;;;20.43;51.63;100592.84;10255373;28;20821;-60
2021/06/03 06:33:29;;;;;;;5.15;4.75;;;;;;;20.52;51.38;100599.03;10253663;28;20133;-61
2021/06/03 06:38:31;;;;;;;5.75;5.03;;;;;;;20.64;51.67;100601.16;10253761;28;20551;-60
2021/06/03 06:43:33;;;;;;;5.00;4.40;;;;;;;20.72;50.94;100597.56;10251414;28;20145;-60
2021/06/03 06:48:36;;;;;;;4.80;4.40;;;;;;;20.83;50.66;100599.81;10253334;28;20062;-61
2021/06/03 06:53:38;;;;;;;5.32;4.82;;;;;;;21.08;50.18;100610.44;10250099;28;20134;-61
2021/06/03 06:58:40;;;;;;;5.57;4.28;;;;;;;21.41;49.64;100603.81;10252659;28;20163;-61
2021/06/03 07:03:41;;;;;;;5.43;3.70;;;;;;;21.77;48.64;100603.09;10249975;28;20704;-61
2021/06/03 07:08:43;;;;;;;5.68;3.80;;;;;;;22.09;47.84;100607.25;10249433;28;20470;-60
2021/06/03 07:13:44;;;;;;;3.80;3.50;;;;;;;22.45;47.28;100606.44;10252809;28;20067;-61
2021/06/03 07:18:45;;;;;;;4.43;4.03;;;;;;;22.72;46.50;100612.94;10250013;28;20550;-62
2021/06/03 07:23:48;;;;;;;4.22;3.83;;;;;;;22.99;46.19;100613.19;10246510;28;20047;-60
2021/06/03 07:28:51;;;;;;;5.30;4.15;;;;;;;23.18;46.14;100619.84;10245423;28;20066;-66
2021/06/03 07:33:52;;;;;;;4.88;4.35;;;;;;;23.34;45.37;100617.84;10247215;28;20153;-64
2021/06/03 07:38:54;;;;;;;4.22;3.83;;;;;;;23.28;46.07;100603.19;10244536;28;20066;-60
2021/06/03 07:43:55;;;;;;;4.05;3.50;;;;;;;23.34;45.41;100606.97;10247969;28;20083;-60
2021/06/03 07:48:57;;;;;;;5.22;3.13;;;;;;;23.15;45.56;100601.22;10246587;28;20132;-69
2021/06/03 07:53:59;;;;;;;6.03;3.60;;;;;;;23.43;45.70;100611.22;10248098;28;20129;-65
2021/06/03 07:59:01;;;;;;;4.95;3.85;;;;;;;23.56;45.45;100607.75;10248491;28;20354;-66
2021/06/03 08:04:03;;;;;;;4.53;3.87;;;;;;;23.76;45.42;100603.22;10247668;28;20134;-62
2021/06/03 08:09:04;;;;;;;4.95;3.75;;;;;;;23.98;45.13;100593.13;10245597;28;20124;-69
2021/06/03 08:14:06;;;;;;;3.67;3.13;;;;;;;24.23;44.69;100587.16;10248108;28;20157;-66
2021/06/03 08:19:07;;;;;;;3.97;3.28;;;;;;;24.33;44.25;100595.72;10248527;28;20165;-66
2021/06/03 08:24:09;;;;;;;3.70;3.20;;;;;;;24.38;44.93;100597.84;10249260;28;20693;-63
2021/06/03 08:29:10;;;;;;;3.30;2.70;;;;;;;24.48;45.25;100592.81;10249974;28;20157;-63
2021/06/03 08:34:12;;;;;;;3.33;3.03;;;;;;;24.76;44.01;100599.19;10250214;28;20469;-63
2021/06/03 08:39:13;;;;;;;2.80;2.60;;;;;;;25.03;43.90;100595.38;10248735;28;20233;-63
2021/06/03 08:44:15;;;;;;;2.97;2.60;;;;;;;25.53;42.38;100603.06;10251035;28;20050;-63
2021/06/03 08:49:16;;;;;;;4.53;2.95;;;;;;;25.61;42.30;100590.28;10248625;28;20054;-63
2021/06/03 08:54:21;;;;;;;3.28;2.55;;;;;;;25.97;42.16;100595.16;10245918;28;20058;-63
2021/06/03 08:59:23;;;;;;;3.50;2.70;;;;;;;26.30;42.16;100594.16;10242788;28;20141;-63
2021/06/03 09:04:24;;;;;;;2.67;2.47;;;;;;;26.88;41.46;100598.63;10245725;28;20078;-62
2021/06/03 09:09:28;;;;;;;3.45;2.60;;;;;;;27.23;40.37;100597.25;10248845;28;20106;-63
2021/06/03 09:14:30;;;;;;;2.38;2.17;;;;;;;27.49;39.51;100607.13;10244855;28;20062;-63
2021/06/03 09:19:32;;;;;;;2.93;2.63;;;;;;;27.95;39.04;100600.22;10244925;28;20098;-63
2021/06/03 09:24:33;;;;;;;2.78;2.30;;;;;;;28.48;38.14;100595.94;10246242;28;20202;-62
2021/06/03 09:29:36;;;;;;;2.87;2.53;;;;;;;28.60;37.68;100596.00;10248075;28;20051;-62
2021/06/03 09:34:39;;;;;;;3.38;2.60;;;;;;;28.56;37.59;100584.66;10224196;28;20146;-62
2021/06/03 09:39:45;;;;;;;3.72;2.55;;;;;;;28.23;37.79;100595.28;10208754;28;20067;-62
2021/06/03 09:44:56;;;;;;;2.25;2.05;;;;;;;28.54;38.01;100591.44;10205058;28;20081;-63
2021/06/03 09:50:00;;;;;;;2.65;2.40;;;;;;;28.93;36.72;100594.63;10200894;28;20070;-63
2021/06/03 09:55:12;;;;;;;4.70;2.27;;;;;;;29.14;36.23;100593.19;10202245;28;20163;-64
2021/06/03 10:00:18;;;;;;;2.67;1.92;;;;;;;28.96;36.46;100587.81;10189076;28;20058;-63
2021/06/03 10:05:22;;;;;;;3.50;2.20;;;;;;;28.86;36.55;100578.28;10209938;28;20494;-63
2021/06/03 10:10:26;;;;;;;1.95;1.75;;;;;;;29.07;36.55;100576.88;10212481;28;20063;-64
2021/06/03 10:15:28;;;;;;;2.05;1.80;;;;;;;29.54;34.85;100573.25;10209575;28;20117;-63
2021/06/03 10:20:32;;;;;;;2.38;1.95;;;;;;;29.58;34.69;100574.44;10209671;28;20127;-64
2021/06/03 10:25:37;;;;;;;2.85;1.92;;;;;;;29.86;34.63;100570.13;10209017;28;20448;-63
2021/06/03 10:30:43;;;;;;;2.35;1.70;;;;;;;30.04;33.36;100565.50;10208255;28;20199;-64
2021/06/03 10:35:48;;;;;;;2.55;1.60;;;;;;;30.33;32.63;100556.16;10245466;28;20133;-63
2021/06/03 10:40:56;;;;;;;2.00;1.80;;;;;;;30.62;30.18;100555.28;10251464;28;20181;-63
2021/06/03 10:45:57;;;;;;;2.53;1.20;;;;;;;30.61;32.20;100557.22;10242677;28;20480;-64
2021/06/03 10:51:06;;;;;;;2.22;1.75;;;;;;;30.50;30.25;100552.63;10247261;28;20043;-63
2021/06/03 10:56:13;;;;;;;2.40;1.20;;;;;;;30.50;29.60;100542.47;10246730;28;20135;-63
2021/06/03 11:01:18;;;;;;;1.90;1.45;;;;;;;30.45;30.06;100544.31;10247362;28;20120;-63
2021/06/03 11:06:22;;;;;;;1.83;1.27;;;;;;;30.27;29.86;100543.41;10251062;28;21584;-63
2021/06/03 11:11:33;;;;;;;1.85;1.60;;;;;;;30.29;30.40;100541.25;10247734;28;20426;-63
2021/06/03 11:16:35;;;;;;;1.38;1.27;;;;;;;30.31;31.25;100544.59;10242932;28;20058;-63
2021/06/03 11:21:42;;;;;;;2.50;1.35;;;;;;;30.38;31.14;100538.13;10247024;28;20042;-63
2021/06/03 11:26:43;;;;;;;2.67;1.80;;;;;;;30.54;31.38;100533.75;10246808;28;20555;-63
2021/06/03 11:31:48;;;;;;;2.85;1.40;;;;;;;30.88;31.95;100542.78;10252910;28;20082;-63
2021/06/03 11:37:00;;;;;;;2.83;1.70;;;;;;;30.72;31.02;100543.66;10212799;28;20162;-63
2021/06/03 11:42:27;;;;;;;1.67;1.58;;;;;;;31.11;31.18;100535.47;10211865;28;20127;-63
2021/06/03 11:47:52;;;;;;;2.22;1.48;;;;;;;31.82;29.92;100530.03;10200763;28;20145;-63
2021/06/03 11:52:54;;;;;;;1.63;1.52;;;;;;;32.00;29.48;100530.78;10170895;28;20137;-63
2021/06/03 11:58:15;;;;;;;1.80;1.20;;;;;;;31.66;30.73;100514.44;10201900;28;20508;-64
2021/06/03 12:03:26;;;;;;;2.42;1.85;;;;;;;31.42;30.63;100514.66;10197372;28;20125;-64
2021/06/03 12:08:42;;;;;;;2.40;1.50;;;;;;;31.50;30.99;100499.66;10190443;28;20043;-64
2021/06/03 12:13:45;;;;;;;2.70;1.77;;;;;;;31.09;31.42;100499.97;10179761;28;20134;-64
2021/06/03 12:18:47;;;;;;;1.95;1.70;;;;;;;30.25;32.57;100495.31;10146043;28;20047;-64
2021/06/03 12:23:53;;;;;;;3.00;2.15;;;;;;;30.00;33.18;100495.75;10189058;28;20055;-64
2021/06/03 12:28:54;;;;;;;2.33;1.83;;;;;;;30.48;33.14;100503.44;10201085;28;20750;-63
2021/06/03 12:33:57;;;;;;;1.75;1.60;;;;;;;30.76;32.02;100485.19;10242427;23;20294;-63
2021/06/03 12:39:02;;;;;;;2.20;1.98;;;;;;;30.77;32.39;100491.50;10281780;28;20058;-63
2021/06/03 12:44:09;;;;;;;1.75;1.65;;;;;;;30.73;32.94;100490.34;10283377;28;20042;-63
2021/06/03 12:49:26;;;;;;;3.10;1.80;;;;;;;31.30;31.88;100490.09;10281373;28;20050;-63
2021/06/03 12:54:34;;;;;;;2.45;1.65;;;;;;;31.63;32.42;100482.78;10283543;28;20221;-64
2021/06/03 12:59:38;;;;;;;1.80;1.70;;;;;;;31.69;31.83;100476.25;10285731;28;20046;-63
2021/06/03 13:04:42;;;;;;;2.35;1.65;;;;;;;31.64;30.46;100470.69;10283611;28;20197;-64
2021/06/03 13:09:54;;;;;;;1.55;1.45;;;;;;;31.36;31.69;100453.31;10285124;28;20134;-63
2021/06/03 13:14:57;;;;;;;2.00;1.90;;;;;;;31.33;32.23;100455.72;10284023;28;20058;-64
2021/06/03 13:19:59;;;;;;;3.00;2.00;;;;;;;31.42;30.87;100456.09;10284935;28;20042;-63
2021/06/03 13:25:05;;;;;;;3.42;2.38;;;;;;;31.34;31.04;100452.72;10284146;28;20073;-66
2021/06/03 13:30:22;;;;;;;1.75;1.45;;;;;;;31.18;31.11;100453.63;10272347;28;20054;-63
2021/06/03 13:35:24;;;;;;;1.80;1.58;;;;;;;30.77;32.22;100453.06;10281328;28;20156;-64
2021/06/03 13:40:44;;;;;;;3.35;1.85;;;;;;;30.22;32.39;100452.75;10293887;28;20076;-64
2021/06/03 13:45:47;;;;;;;1.85;1.67;;;;;;;29.83;33.64;100438.06;10307576;28;20584;-64
2021/06/03 13:50:58;;;;;;;2.85;2.20;;;;;;;29.51;34.44;100439.38;10301286;28;20498;-63
2021/06/03 13:56:21;;;;;;;3.88;3.47;;;;;;;29.36;35.30;100439.09;10304598;28;20060;-64
2021/06/03 14:01:23;;;;;;;3.53;3.22;;;;;;;29.03;36.20;100440.59;10296677;28;20076;-63
2021/06/03 14:06:52;;;;;;;3.20;2.72;;;;;;;28.92;36.81;100429.41;10279121;28;20105;-63
2021/06/03 14:17:08;;;;;;;3.38;2.60;;;;;;;28.91;36.99;100422.28;10289200;28;20042;-64
2021/06/03 14:22:12;;;;;;;3.20;2.73;;;;;;;28.94;36.35;100422.84;10279880;28;20085;-63
2021/06/03 14:27:20;;;;;;;4.30;3.70;;;;;;;28.97;36.43;100422.38;10295344;28;20075;-63
2021/06/03 14:32:25;;;;;;;4.25;2.13;;;;;;;28.97;36.00;100425.94;10301492;28;20120;-65
2021/06/03 14:37:28;;;;;;;5.13;3.10;;;;;;;28.68;36.19;100420.38;10282912;28;20038;-63
2021/06/03 14:42:40;;;;;;;3.55;2.50;;;;;;;28.73;36.15;100426.00;10282387;28;20124;-63
2021/06/03 14:47:42;;;;;;;4.33;3.80;;;;;;;28.62;35.87;100421.34;10282087;28;20056;-66
2021/06/03 14:52:49;;;;;;;4.55;2.03;;;;;;;28.76;35.88;100421.09;10283397;28;20535;-63
2021/06/03 14:57:52;;;;;;;2.47;2.08;;;;;;;28.72;36.28;100423.50;10284287;28;20057;-64
2021/06/03 15:02:54;;;;;;;2.63;2.08;;;;;;;28.74;36.54;100418.59;10284419;28;20611;-64
2021/06/03 15:07:58;;;;;;;3.05;1.42;;;;;;;28.50;36.50;100410.38;10282396;28;20250;-63
2021/06/03 15:13:05;;;;;;;2.85;1.58;;;;;;;28.46;36.47;100411.91;10283931;28;20137;-63
2021/06/03 15:18:07;;;;;;;1.77;1.58;;;;;;;28.37;36.53;100406.00;10282595;28;20177;-64
2021/06/03 15:23:12;;;;;;;2.70;1.90;;;;;;;28.25;36.61;100413.34;10282790;28;20065;-64
2021/06/03 15:28:14;;;;;;;2.00;1.80;;;;;;;28.30;36.61;100408.00;10281666;28;20348;-63
2021/06/03 15:33:16;;;;;;;3.10;1.77;;;;;;;28.32;36.58;100413.25;10281594;28;20070;-64
2021/06/03 15:38:18;;;;;;;2.63;1.80;;;;;;;28.20;36.49;100411.31;10270257;28;20060;-64
2021/06/03 15:43:22;;;;;;;2.10;1.67;;;;;;;27.98;36.52;100391.06;10293061;28;20101;-64
2021/06/03 15:48:25;;;;;;;2.78;2.13;;;;;;;27.90;37.07;100405.06;10288342;28;20140;-64
2021/06/03 15:53:27;;;;;;;5.07;2.03;;;;;;;27.86;36.76;100402.81;10270632;28;20050;-63
2021/06/03 15:58:28;;;;;;;3.63;1.85;;;;;;;27.67;37.72;100403.94;10258409;28;20057;-63
2021/06/03 16:03:31;;;;;;;7.72;2.15;;;;;;;27.67;38.27;100406.69;10259050;28;20072;-63
2021/06/03 16:08:33;;;;;;;1.95;1.80;;;;;;;27.54;38.01;100401.41;10279235;28;20093;-63
2021/06/03 16:13:34;;;;;;;2.38;2.17;;;;;;;27.46;38.50;100400.66;10281755;28;20057;-64
2021/06/03 16:18:36;;;;;;;2.60;2.00;;;;;;;27.37;38.51;100396.59;10285769;28;20626;-64
2021/06/03 16:23:38;;;;;;;4.15;1.92;;;;;;;27.30;38.99;100390.34;10291301;28;20092;-63
2021/06/03 16:28:39;;;;;;;2.80;2.28;;;;;;;27.23;39.51;100384.13;10287856;28;20277;-63
2021/06/03 16:33:41;;;;;;;3.03;2.20;;;;;;;27.14;40.17;100376.25;10266011;28;20062;-63
2021/06/03 16:38:42;;;;;;;3.80;2.88;;;;;;;26.94;41.72;100389.31;10271829;28;20145;-63
2021/06/03 16:43:43;;;;;;;2.65;2.20;;;;;;;26.80;42.98;100408.59;10274404;28;20058;-64
2021/06/03 16:48:46;;;;;;;3.58;2.78;;;;;;;26.59;45.55;100423.47;10272540;28;20042;-63
2021/06/03 16:53:47;;;;;;;2.70;2.50;;;;;;;26.37;48.06;100425.78;10269327;28;20895;-64
2021/06/03 16:58:48;;;;;;;4.15;2.13;;;;;;;25.94;50.53;100431.97;10270447;28;20308;-63
2021/06/03 17:03:51;;;;;;;5.82;3.25;;;;;;;25.51;55.43;100454.50;10275001;28;20054;-64
2021/06/03 17:08:55;;;;;;;4.70;3.30;;;;;;;25.43;57.62;100471.06;10274954;28;20038;-65
2021/06/03 17:13:56;;;;;;;3.20;2.90;;;;;;;24.67;59.05;100489.69;10278873;28;20054;-64
2021/06/03 17:18:58;;;;;;;3.03;1.67;;;;;;;23.99;59.85;100468.91;10282081;28;20073;-65
2021/06/03 17:23:59;;;;;;;2.97;1.00;;;;;;;23.51;61.19;100493.41;10282272;28;20169;-65
2021/06/03 17:29:04;;;;;;;2.80;1.48;;;;;;;22.83;63.57;100527.44;10280916;28;20101;-64
2021/06/03 17:34:05;;;;;;;3.00;1.60;;;;;;;22.46;64.99;100543.03;10280705;28;20058;-66
2021/06/03 17:39:07;;;;;;;2.35;1.50;;;;;;;22.13;68.05;100573.31;10275136;28;20068;-63
2021/06/03 17:44:08;;;;;;;3.13;2.10;;;;;;;22.02;69.19;100585.50;10288048;28;20578;-63
2021/06/03 17:49:10;;;;;;;3.15;2.20;;;;;;;21.84;70.75;100604.88;10297430;28;20133;-65
2021/06/03 17:54:12;;;;;;;2.58;1.80;;;;;;;21.78;70.01;100605.63;10276297;28;20596;-64
2021/06/03 17:59:14;;;;;;;4.55;1.67;;;;;;;21.64;71.60;100606.50;10292725;28;20494;-64
2021/06/03 18:04:15;;;;;;;6.03;3.13;;;;;;;21.80;72.01;100617.13;10290717;28;20137;-61
2021/06/03 18:09:17;;;;;;;6.68;2.03;;;;;;;21.70;71.40;100616.56;10278540;28;20145;-61
2021/06/03 18:14:18;;;;;;;2.83;1.70;;;;;;;21.77;72.29;100609.38;10295324;28;20142;-59
2021/06/03 18:19:20;;;;;;;3.17;2.33;;;;;;;21.87;71.34;100612.63;10290832;28;20046;-63
2021/06/03 18:24:22;;;;;;;3.17;1.98;;;;;;;22.01;72.34;100612.81;10283294;28;20054;-61
2021/06/03 18:29:23;;;;;;;3.50;2.17;;;;;;;22.10;70.55;100589.13;10295373;28;20080;-58
2021/06/03 18:34:25;;;;;;;3.83;2.63;;;;;;;22.14;71.05;100595.84;10307516;23;20153;-65
2021/06/03 18:39:26;;;;;;;2.60;1.63;;;;;;;22.20;69.50;100597.78;10264607;28;20098;-64
2021/06/03 18:44:28;;;;;;;3.42;1.88;;;;;;;22.30;67.72;100600.19;10242391;28;20066;-61
2021/06/03 18:49:29;;;;;;;2.83;1.35;;;;;;;22.27;66.86;100581.59;10243720;28;20140;-66
2021/06/03 18:54:35;;;;;;;4.15;1.40;;;;;;;22.13;66.80;100558.91;10248031;28;20055;-65
2021/06/03 18:59:37;;;;;;;2.50;0.90;;;;;;;21.84;67.77;100548.00;10257376;28;20063;-65
2021/06/03 19:04:41;;;;;;;2.42;1.33;;;;;;;21.59;69.55;100555.59;10258632;28;20055;-64
2021/06/03 19:09:43;;;;;;;2.88;1.60;;;;;;;21.65;71.07;100556.72;10254734;28;20438;-63
2021/06/03 19:14:44;;;;;;;2.03;1.73;;;;;;;21.62;72.78;100562.47;10253536;28;20136;-63
2021/06/03 19:19:46;;;;;;;2.95;1.92;;;;;;;21.58;72.90;100563.91;10253299;28;20189;-63
2021/06/03 19:24:47;;;;;;;3.00;2.05;;;;;;;21.55;74.37;100565.13;10253583;28;20106;-60
2021/06/03 19:29:49;;;;;;;5.20;2.53;;;;;;;21.49;75.48;100566.66;10254391;28;20105;-62
2021/06/03 19:34:50;;;;;;;2.63;2.42;;;;;;;21.50;75.45;100573.81;10245777;28;20743;-62
2021/06/03 19:39:52;;;;;;;3.85;2.70;;;;;;;21.51;75.01;100575.50;10214708;28;20078;-62
2021/06/03 19:44:53;;;;;;;4.40;2.60;;;;;;;21.46;76.29;100572.47;10215585;28;20063;-64
2021/06/03 19:49:55;;;;;;;3.30;2.70;;;;;;;21.51;76.37;100589.03;10212862;28;20194;-63
2021/06/03 19:54:56;;;;;;;4.15;2.28;;;;;;;21.47;76.27;100589.56;10210170;28;20065;-65
2021/06/03 19:59:57;;;;;;;3.25;2.95;;;;;;;21.41;76.38;100585.72;10215061;28;20126;-63
2021/06/03 20:04:59;;;;;;;3.33;3.03;;;;;;;21.43;77.68;100578.25;10209617;28;20162;-62
2021/06/03 20:10:01;;;;;;;2.90;2.60;;;;;;;21.49;77.42;100585.63;10211199;28;20130;-62
2021/06/03 20:15:05;;;;;;;2.63;2.15;;;;;;;21.46;74.72;100580.59;10195391;28;20050;-62
2021/06/03 20:20:09;;;;;;;2.42;2.17;;;;;;;21.42;76.41;100576.56;10210640;28;20676;-64
2021/06/03 20:25:17;;;;;;;3.55;2.13;;;;;;;21.34;76.07;100580.22;10206488;28;20142;-62
2021/06/03 20:30:21;;;;;;;2.90;2.60;;;;;;;21.33;76.08;100573.13;10206585;28;20131;-62
2021/06/03 20:35:24;;;;;;;2.88;2.00;;;;;;;21.28;75.38;100574.72;10223714;28;20136;-63
2021/06/03 20:40:26;;;;;;;2.70;1.90;;;;;;;21.18;74.74;100592.06;10251317;28;20477;-61
2021/06/03 20:45:30;;;;;;;2.70;2.50;;;;;;;21.06;74.95;100584.56;10245100;28;20073;-62
2021/06/03 20:50:39;;;;;;;4.10;2.47;;;;;;;20.94;76.17;100578.75;10249518;28;20166;-63
2021/06/03 20:55:42;;;;;;;2.95;2.35;;;;;;;20.88;75.26;100582.22;10245922;28;20039;-65
2021/06/03 21:00:45;;;;;;;3.10;2.60;;;;;;;20.78;76.74;100588.72;10252245;28;20195;-62
2021/06/03 21:05:46;;;;;;;3.47;3.17;;;;;;;20.69;77.37;100579.00;10240344;28;20151;-64
2021/06/03 21:10:54;;;;;;;3.35;2.75;;;;;;;20.70;78.19;100588.78;10254915;28;20199;-61
2021/06/03 21:15:56;;;;;;;3.90;3.35;;;;;;;20.68;76.63;100596.25;10248443;28;23236;-63
2021/06/03 21:20:57;;;;;;;5.47;4.00;;;;;;;20.69;77.87;100603.34;10234936;28;20488;-62
2021/06/03 21:26:00;;;;;;;3.75;3.45;;;;;;;20.72;77.15;100619.19;10242752;28;20130;-64
2021/06/03 21:31:01;;;;;;;4.38;3.97;;;;;;;20.83;78.66;100617.94;10248962;28;20046;-63
2021/06/03 21:36:04;;;;;;;3.40;3.10;;;;;;;20.82;77.95;100618.94;10254381;28;20057;-63
2021/06/03 21:41:07;;;;;;;4.37;3.90;;;;;;;20.77;77.66;100611.38;10266722;28;20070;-63
2021/06/03 21:46:08;;;;;;;3.20;2.90;;;;;;;20.76;78.16;100607.00;10261840;28;20491;-64
2021/06/03 21:51:10;;;;;;;2.83;2.25;;;;;;;20.71;78.13;100603.16;10243753;28;20105;-62
2021/06/03 21:56:11;;;;;;;4.68;2.60;;;;;;;20.73;78.82;100599.25;10266388;28;20070;-63
2021/06/03 22:01:13;;;;;;;3.67;2.58;;;;;;;20.65;76.92;100597.44;10267892;28;20220;-63
2021/06/03 22:06:14;;;;;;;2.72;2.53;;;;;;;20.43;79.73;100603.66;10255393;28;20055;-62
2021/06/03 22:11:16;;;;;;;2.95;2.42;;;;;;;20.57;79.55;100602.06;10232507;28;20117;-64
2021/06/03 22:16:17;;;;;;;2.83;2.47;;;;;;;20.57;80.17;100607.47;10239354;28;20756;-62
2021/06/03 22:21:20;;;;;;;4.47;2.92;;;;;;;20.59;79.18;100595.44;10234017;28;20047;-63
2021/06/03 22:26:21;;;;;;;3.45;2.90;;;;;;;20.58;79.57;100599.16;10235860;28;20125;-64
2021/06/03 22:31:30;;;;;;;3.00;2.70;;;;;;;20.60;79.81;100594.41;10234798;28;20050;-63
2021/06/03 22:36:31;;;;;;;2.92;2.72;;;;;;;20.60;78.50;100594.41;10230647;28;20055;-65
2021/06/03 22:41:33;;;;;;;4.70;3.40;;;;;;;20.60;78.99;100599.00;10244895;28;20150;-62
2021/06/03 22:46:34;;;;;;;3.42;2.67;;;;;;;20.62;78.50;100607.75;10224664;28;20126;-62
2021/06/03 22:51:39;;;;;;;4.32;2.85;;;;;;;20.66;79.48;100598.28;10236732;28;20082;-63
2021/06/03 22:56:47;;;;;;;4.03;2.83;;;;;;;20.60;78.55;100601.69;10237356;28;20075;-62
2021/06/03 23:01:51;;;;;;;5.82;2.65;;;;;;;20.65;79.66;100602.84;10243023;28;20134;-63
2021/06/03 23:06:56;;;;;;;5.70;3.80;;;;;;;20.65;79.00;100602.84;10227092;28;20074;-63
2021/06/03 23:11:59;;;;;;;3.00;2.65;;;;;;;20.63;79.62;100598.63;10228072;28;20125;-62
2021/06/03 23:17:03;;;;;;;3.90;3.50;;;;;;;20.62;79.61;100607.75;10243792;28;20151;-62
2021/06/03 23:22:05;;;;;;;5.20;3.05;;;;;;;20.51;76.90;100602.75;10229860;28;20066;-61